createdAt,value
2019-02-11T00:01:20.935Z,22.70
2019-02-11T00:04:09.904Z,23.30
2019-02-11T00:06:59.497Z,23.00
2019-02-11T00:09:48.608Z,23.87
2019-02-11T00:12:38.156Z,25.17
2019-02-11T00:15:26.751Z,25.03
2019-02-11T00:18:16.253Z,27.10
2019-02-11T00:21:05.905Z,25.63
2019-02-11T00:23:55.132Z,27.23
2019-02-11T00:26:44.193Z,27.53
2019-02-11T00:29:33.210Z,22.30
2019-02-11T00:32:22.971Z,24.03
2019-02-11T00:35:12.708Z,23.90
2019-02-11T00:38:02.170Z,25.00
2019-02-11T00:40:51.420Z,24.30
2019-02-11T00:43:40.784Z,78.27
2019-02-11T00:46:30.031Z,64.73
2019-02-11T00:49:19.353Z,32.47
2019-02-11T00:52:08.983Z,30.57
2019-02-11T00:54:58.496Z,37.97
2019-02-11T00:57:48.079Z,36.23
2019-02-11T01:00:37.396Z,36.87
2019-02-11T01:03:28.814Z,32.23
2019-02-11T01:06:17.940Z,32.07
2019-02-11T01:09:07.998Z,30.20
2019-02-11T01:11:57.666Z,33.03
2019-02-11T01:14:47.116Z,33.83
2019-02-11T01:17:38.671Z,33.33
2019-02-11T01:20:27.471Z,33.93
2019-02-11T01:23:17.042Z,34.20
2019-02-11T01:26:06.345Z,33.33
2019-02-11T01:28:55.647Z,32.97
2019-02-11T01:31:45.190Z,35.63
2019-02-11T01:34:34.022Z,35.33
2019-02-11T01:37:23.567Z,35.03
2019-02-11T01:40:13.041Z,37.13
2019-02-11T01:43:02.641Z,36.87
2019-02-11T01:45:52.021Z,32.67
2019-02-11T01:48:41.590Z,34.47
2019-02-11T01:51:31.304Z,33.07
2019-02-11T01:54:20.731Z,36.13
2019-02-11T01:57:10.252Z,33.80
2019-02-11T01:59:59.515Z,33.77
2019-02-11T02:02:49.097Z,35.57
2019-02-11T02:05:38.368Z,36.60
2019-02-11T02:08:27.791Z,37.47
2019-02-11T02:11:17.327Z,36.40
2019-02-11T02:14:06.746Z,48.10
2019-02-11T02:16:56.310Z,29.73
2019-02-11T02:19:45.523Z,27.70
2019-02-11T02:22:35.066Z,25.73
2019-02-11T02:25:24.768Z,26.90
2019-02-11T02:28:14.387Z,25.63
2019-02-11T02:31:04.136Z,28.17
2019-02-11T02:33:53.200Z,28.23
2019-02-11T02:36:42.515Z,27.57
2019-02-11T02:39:31.757Z,23.87
2019-02-11T02:42:21.116Z,22.00
2019-02-11T02:45:10.586Z,27.90
2019-02-11T02:48:00.076Z,31.60
2019-02-11T02:50:49.669Z,24.03
2019-02-11T02:53:38.979Z,23.77
2019-02-11T02:56:28.247Z,24.97
2019-02-11T02:59:17.579Z,26.27
2019-02-11T03:02:06.912Z,32.17
2019-02-11T03:04:55.900Z,32.20
2019-02-11T03:07:45.349Z,38.20
2019-02-11T03:10:35.051Z,75.07
2019-02-11T03:13:25.103Z,47.67
2019-02-11T03:16:14.533Z,47.10
2019-02-11T03:19:03.860Z,46.73
2019-02-11T03:21:53.012Z,43.43
2019-02-11T03:24:42.761Z,40.27
2019-02-11T03:27:32.171Z,37.57
2019-02-11T03:30:21.456Z,37.53
2019-02-11T03:33:11.111Z,35.97
2019-02-11T03:36:00.268Z,33.23
2019-02-11T03:38:49.385Z,33.33
2019-02-11T03:41:38.801Z,33.13
2019-02-11T03:44:27.670Z,34.37
2019-02-11T03:47:17.327Z,58.13
2019-02-11T03:50:07.543Z,54.07
2019-02-11T03:52:56.663Z,37.03
2019-02-11T03:55:45.722Z,34.57
2019-02-11T03:58:35.026Z,33.30
2019-02-11T04:01:27.381Z,37.40
2019-02-11T04:04:16.897Z,38.83
2019-02-11T04:07:06.562Z,38.50
2019-02-11T04:09:55.771Z,42.97
2019-02-11T04:12:44.631Z,44.20
2019-02-11T04:15:34.025Z,37.87
2019-02-11T04:18:23.754Z,34.67
2019-02-11T04:21:13.196Z,44.13
2019-02-11T04:24:02.611Z,43.57
2019-02-11T04:26:51.658Z,50.93
2019-02-11T04:29:41.261Z,40.47
2019-02-11T04:32:30.811Z,34.87
2019-02-11T04:35:20.080Z,51.77
2019-02-11T04:38:11.545Z,49.97
2019-02-11T04:41:01.038Z,46.40
2019-02-11T04:43:50.366Z,51.67
2019-02-11T04:46:39.627Z,49.83
2019-02-11T04:49:29.208Z,38.50
2019-02-11T04:52:18.564Z,52.27
2019-02-11T04:55:07.931Z,50.10
2019-02-11T04:57:57.406Z,64.87
2019-02-11T05:00:46.300Z,70.53
2019-02-11T05:03:35.668Z,53.57
2019-02-11T05:06:24.951Z,43.77
2019-02-11T05:09:14.123Z,39.77
2019-02-11T05:12:03.553Z,39.07
2019-02-11T05:14:54.581Z,38.20
2019-02-11T05:17:47.101Z,42.63
2019-02-11T05:20:36.911Z,39.43
2019-02-11T05:23:26.293Z,40.73
2019-02-11T05:26:15.872Z,61.50
2019-02-11T05:29:05.214Z,47.97
2019-02-11T05:31:54.565Z,44.57
2019-02-11T05:34:44.030Z,46.03
2019-02-11T05:37:33.704Z,54.63
2019-02-11T05:40:23.422Z,49.40
2019-02-11T05:43:15.103Z,46.73
2019-02-11T05:46:04.731Z,176.27
2019-02-11T05:48:54.519Z,62.13
2019-02-11T05:51:43.754Z,52.13
2019-02-11T05:54:33.095Z,58.80
2019-02-11T05:57:22.437Z,81.47
2019-02-11T06:00:13.997Z,75.77
2019-02-11T06:03:06.172Z,71.47
2019-02-11T06:05:55.582Z,64.50
2019-02-11T06:08:44.959Z,73.60
2019-02-11T06:11:34.261Z,102.67
2019-02-11T06:14:23.530Z,93.40
2019-02-11T06:17:12.854Z,147.10
2019-02-11T06:20:03.369Z,115.70
2019-02-11T06:22:52.225Z,83.90
2019-02-11T06:25:41.935Z,65.43
2019-02-11T06:28:30.836Z,241.73
2019-02-11T06:31:20.074Z,120.63
2019-02-11T06:34:09.686Z,137.03
2019-02-11T06:36:58.997Z,131.07
2019-02-11T06:39:48.064Z,123.77
2019-02-11T06:42:37.524Z,113.03
2019-02-11T06:45:27.423Z,123.47
2019-02-11T06:48:16.398Z,127.77
2019-02-11T06:51:05.956Z,119.10
2019-02-11T06:53:55.075Z,130.47
2019-02-11T06:56:50.412Z,167.07
2019-02-11T06:59:39.168Z,184.87
2019-02-11T07:02:28.419Z,163.17
2019-02-11T07:05:17.934Z,191.53
2019-02-11T07:08:08.070Z,119.23
2019-02-11T07:10:57.558Z,124.70
2019-02-11T07:13:46.450Z,129.90
2019-02-11T07:16:36.207Z,125.43
2019-02-11T07:19:25.316Z,131.10
2019-02-11T07:22:15.608Z,136.47
2019-02-11T07:25:11.325Z,134.73
2019-02-11T07:28:00.580Z,128.97
2019-02-11T07:30:49.729Z,158.57
2019-02-11T07:33:39.307Z,100.27
2019-02-11T07:36:28.534Z,61.57
2019-02-11T07:39:17.841Z,63.77
2019-02-11T07:42:35.273Z,118.03
2019-02-11T07:45:38.369Z,105.17
2019-02-11T07:48:27.629Z,100.93
2019-02-11T07:51:16.942Z,91.80
2019-02-11T07:54:05.822Z,70.73
2019-02-11T07:56:55.302Z,69.40
2019-02-11T07:59:44.706Z,77.53
2019-02-11T08:02:33.843Z,51.43
2019-02-11T08:05:23.327Z,37.10
2019-02-11T08:08:12.826Z,66.90
2019-02-11T08:11:01.628Z,73.73
2019-02-11T08:13:50.898Z,74.60
2019-02-11T08:16:39.757Z,69.83
2019-02-11T08:19:29.160Z,70.97
2019-02-11T08:22:18.643Z,70.67
2019-02-11T08:25:07.539Z,76.27
2019-02-11T08:27:56.885Z,74.63
2019-02-11T08:30:46.111Z,71.53
2019-02-11T08:33:35.739Z,65.67
2019-02-11T08:36:25.553Z,53.20
2019-02-11T08:39:15.043Z,52.67
2019-02-11T08:42:04.391Z,50.90
2019-02-11T08:44:53.570Z,56.03
2019-02-11T08:47:45.776Z,59.70
2019-02-11T08:50:35.233Z,70.37
2019-02-11T08:53:23.995Z,127.17
2019-02-11T08:56:13.846Z,59.73
2019-02-11T08:59:04.838Z,46.40
2019-02-11T09:01:54.144Z,53.53
2019-02-11T09:04:43.674Z,69.60
2019-02-11T09:07:33.249Z,69.97
2019-02-11T09:10:22.522Z,46.63
2019-02-11T09:13:11.956Z,43.33
2019-02-11T09:16:03.163Z,33.07
2019-02-11T09:18:52.257Z,36.80
2019-02-11T09:21:41.672Z,48.80
2019-02-11T09:24:34.959Z,80.40
2019-02-11T09:27:24.380Z,43.47
2019-02-11T09:30:15.026Z,51.63
2019-02-11T09:33:04.297Z,46.87
2019-02-11T09:35:53.560Z,42.57
2019-02-11T09:38:48.646Z,45.00
2019-02-11T09:41:38.372Z,49.00
2019-02-11T09:44:29.636Z,46.00
2019-02-11T09:47:18.166Z,47.73
2019-02-11T09:50:22.636Z,40.40
2019-02-11T09:53:12.141Z,45.63
2019-02-11T09:56:01.594Z,49.60
2019-02-11T09:58:50.922Z,42.27
2019-02-11T10:01:40.409Z,67.73
2019-02-11T10:04:29.830Z,47.13
2019-02-11T10:07:19.102Z,60.80
2019-02-11T10:10:09.482Z,46.23
2019-02-11T10:12:59.167Z,50.20
2019-02-11T10:15:48.523Z,44.73
2019-02-11T10:18:37.555Z,46.33
2019-02-11T10:21:26.827Z,46.40
2019-02-11T10:24:16.142Z,47.53
2019-02-11T10:27:08.223Z,80.10
2019-02-11T10:29:57.406Z,43.70
2019-02-11T10:32:46.362Z,50.63
2019-02-11T10:35:42.048Z,51.50
2019-02-11T10:38:25.572Z,140.43
2019-02-11T10:41:15.094Z,55.60
2019-02-11T10:44:04.369Z,51.10
2019-02-11T10:46:53.632Z,44.43
2019-02-11T10:49:43.080Z,51.10
2019-02-11T10:52:32.577Z,53.73
2019-02-11T10:55:21.836Z,69.60
2019-02-11T10:58:11.527Z,52.77
2019-02-11T11:01:01.166Z,61.00
2019-02-11T11:03:50.697Z,47.20
2019-02-11T11:06:40.223Z,51.20
2019-02-11T11:09:31.306Z,48.27
2019-02-11T11:12:21.321Z,44.47
2019-02-11T11:15:11.060Z,46.50
2019-02-11T11:18:00.388Z,40.47
2019-02-11T11:20:50.039Z,38.53
2019-02-11T11:23:39.303Z,60.07
2019-02-11T11:26:28.687Z,30.43
2019-02-11T11:29:18.037Z,49.73
2019-02-11T11:32:07.662Z,48.23
2019-02-11T11:34:56.936Z,29.93
2019-02-11T11:37:46.207Z,22.60
2019-02-11T11:40:35.553Z,17.40
2019-02-11T11:43:24.813Z,17.07
2019-02-11T11:46:13.790Z,20.53
2019-02-11T11:49:02.978Z,19.63
2019-02-11T11:51:52.132Z,44.30
2019-02-11T11:54:41.387Z,44.07
2019-02-11T11:57:31.110Z,40.90
2019-02-11T12:00:25.629Z,35.37
2019-02-11T12:03:14.863Z,22.30
2019-02-11T12:06:04.984Z,15.50
2019-02-11T12:08:54.487Z,13.70
2019-02-11T12:11:43.833Z,14.50
2019-02-11T12:14:32.710Z,16.40
2019-02-11T12:17:22.180Z,15.47
2019-02-11T12:20:12.385Z,19.43
2019-02-11T12:23:01.632Z,18.10
2019-02-11T12:25:50.793Z,16.83
2019-02-11T12:28:40.211Z,16.83
2019-02-11T12:31:29.949Z,14.50
2019-02-11T12:34:19.485Z,17.53
2019-02-11T12:37:09.928Z,15.90
2019-02-11T12:39:58.984Z,18.93
2019-02-11T12:42:48.354Z,14.57
2019-02-11T12:45:37.640Z,26.20
2019-02-11T12:48:27.145Z,18.80
2019-02-11T12:51:16.313Z,15.93
2019-02-11T12:54:05.151Z,16.37
2019-02-11T12:56:54.371Z,15.33
2019-02-11T12:59:43.173Z,18.13
2019-02-11T13:02:32.559Z,27.20
2019-02-11T13:05:09.400Z,27.00
2019-02-11T13:07:46.575Z,20.03
2019-02-11T13:10:19.754Z,20.00
2019-02-11T13:12:54.912Z,19.23
2019-02-11T13:16:00.278Z,25.50
2019-02-11T13:18:21.382Z,21.63
2019-02-11T13:20:55.578Z,17.03
2019-02-11T13:23:26.434Z,47.53
2019-02-11T13:26:00.671Z,43.93
2019-02-11T13:28:31.773Z,45.40
2019-02-11T13:31:02.614Z,41.30
2019-02-11T13:33:35.149Z,43.97
2019-02-11T13:36:07.909Z,46.63
2019-02-11T13:38:38.761Z,41.10
2019-02-11T13:41:11.209Z,47.93
2019-02-11T13:43:51.838Z,50.33
2019-02-11T13:46:22.741Z,60.43
2019-02-11T13:48:53.570Z,57.03
2019-02-11T13:51:24.611Z,88.43
2019-02-11T13:53:57.144Z,87.90
2019-02-11T13:56:28.004Z,85.23
2019-02-11T13:58:58.904Z,52.63
2019-02-11T14:01:31.349Z,57.53
2019-02-11T14:04:08.234Z,70.63
2019-02-11T14:06:40.960Z,76.27
2019-02-11T14:09:16.886Z,58.53
2019-02-11T14:11:52.708Z,51.07
2019-02-11T14:14:29.336Z,47.57
2019-02-11T14:17:00.209Z,149.43
2019-02-11T14:19:31.348Z,63.93
2019-02-11T14:22:02.271Z,61.90
2019-02-11T14:24:34.745Z,88.93
2019-02-11T14:27:05.591Z,94.67
2019-02-11T14:29:39.728Z,139.70
2019-02-11T14:32:10.586Z,95.40
2019-02-11T14:34:41.615Z,85.73
2019-02-11T14:37:12.476Z,75.73
2019-02-11T14:39:43.604Z,50.83
2019-02-11T14:42:18.777Z,72.47
2019-02-11T14:44:49.642Z,91.70
2019-02-11T14:47:20.509Z,67.67
2019-02-11T14:49:57.647Z,66.83
2019-02-11T14:52:35.770Z,88.20
2019-02-11T14:55:07.126Z,88.50
2019-02-11T14:57:41.124Z,53.30
2019-02-11T15:00:17.701Z,43.10
2019-02-11T15:02:48.780Z,56.80
2019-02-11T15:05:19.801Z,57.57
2019-02-11T15:07:50.753Z,55.77
2019-02-11T15:10:21.781Z,95.43
2019-02-11T15:12:52.669Z,66.70
2019-02-11T15:15:23.765Z,60.87
2019-02-11T15:17:54.864Z,54.33
2019-02-11T15:20:25.726Z,50.83
2019-02-11T15:22:59.916Z,48.23
2019-02-11T15:25:32.403Z,49.43
2019-02-11T15:28:03.275Z,48.57
2019-02-11T15:30:34.182Z,58.73
2019-02-11T15:33:11.547Z,101.10
2019-02-11T15:35:45.349Z,91.77
2019-02-11T15:38:19.074Z,91.40
2019-02-11T15:40:49.954Z,84.43
2019-02-11T15:43:20.879Z,96.47
2019-02-11T15:45:53.337Z,284.43
2019-02-11T15:48:24.551Z,274.70
2019-02-11T15:50:57.092Z,193.50
2019-02-11T15:53:29.594Z,141.33
2019-02-11T15:56:07.718Z,119.90
2019-02-11T15:58:33.345Z,69.60
2019-02-11T16:01:04.255Z,59.60
2019-02-11T16:03:37.000Z,59.30
2019-02-11T16:06:10.650Z,333.17
2019-02-11T16:08:41.092Z,69.30
2019-02-11T16:11:12.366Z,62.67
2019-02-11T16:13:43.308Z,107.33
2019-02-11T16:16:14.255Z,123.77
2019-02-11T16:18:51.709Z,117.67
2019-02-11T16:21:17.812Z,112.90
2019-02-11T16:23:48.683Z,118.00
2019-02-11T16:26:19.579Z,76.57
2019-02-11T16:28:50.539Z,92.27
2019-02-11T16:31:21.408Z,63.57
2019-02-11T16:33:53.695Z,69.73
2019-02-11T16:36:24.607Z,69.93
2019-02-11T16:38:59.063Z,82.07
2019-02-11T16:41:29.950Z,101.73
2019-02-11T16:44:04.424Z,169.95
2019-02-11T16:46:35.344Z,351.23
2019-02-11T16:49:06.271Z,204.97
2019-02-11T16:51:40.933Z,250.20
2019-02-11T16:54:11.818Z,188.77
2019-02-11T16:56:42.680Z,231.10
2019-02-11T16:59:15.221Z,203.47
2019-02-11T17:01:49.684Z,213.47
2019-02-11T17:04:20.572Z,230.23
2019-02-11T17:06:51.492Z,272.23
2019-02-11T17:09:22.497Z,267.07
2019-02-11T17:11:53.447Z,269.37
2019-02-11T17:14:25.965Z,246.43
2019-02-11T17:16:56.834Z,239.03
2019-02-11T17:19:27.754Z,213.23
2019-02-11T17:21:59.218Z,204.07
2019-02-11T17:24:30.088Z,229.70
2019-02-11T17:27:00.990Z,159.63
2019-02-11T17:29:32.103Z,154.40
2019-02-11T17:32:03.173Z,194.53
2019-02-11T17:34:35.251Z,49.57
2019-02-11T17:37:06.179Z,226.03
2019-02-11T17:39:37.050Z,82.83
2019-02-11T17:42:07.939Z,64.00
2019-02-11T17:44:38.856Z,57.90
2019-02-11T17:47:09.724Z,27.80
2019-02-11T17:49:40.595Z,28.93
2019-02-11T17:52:11.669Z,31.00
2019-02-11T17:54:44.126Z,19.90
2019-02-11T17:57:15.105Z,14.47
2019-02-11T17:59:46.046Z,15.80
2019-02-11T18:02:16.987Z,14.23
2019-02-11T18:04:49.934Z,15.40
2019-02-11T18:07:20.847Z,15.83
2019-02-11T18:09:51.728Z,18.83
2019-02-11T18:12:22.612Z,18.67
2019-02-11T18:14:53.531Z,31.90
2019-02-11T18:17:24.488Z,20.03
2019-02-11T18:19:55.390Z,18.33
2019-02-11T18:22:45.105Z,17.57
2019-02-11T18:25:15.987Z,15.70
2019-02-11T18:27:49.506Z,17.73
2019-02-11T18:30:20.425Z,17.17
2019-02-11T18:32:51.388Z,16.37
2019-02-11T18:35:23.407Z,18.83
2019-02-11T18:37:54.284Z,16.00
2019-02-11T18:40:25.288Z,15.43
2019-02-11T18:42:56.238Z,15.17
2019-02-11T18:45:27.237Z,16.70
2019-02-11T18:47:58.128Z,16.47
2019-02-11T18:50:29.058Z,40.20
2019-02-11T18:53:01.523Z,23.03
2019-02-11T18:55:32.454Z,22.13
2019-02-11T18:58:03.382Z,19.13
2019-02-11T19:00:34.355Z,19.73
2019-02-11T19:03:05.506Z,16.83
2019-02-11T19:05:36.468Z,14.13
2019-02-11T19:08:07.441Z,15.70
2019-02-11T19:10:38.337Z,21.13
2019-02-11T19:13:09.470Z,17.23
2019-02-11T19:15:40.398Z,15.97
2019-02-11T19:18:11.487Z,18.63
2019-02-11T19:20:42.644Z,18.33
2019-02-11T19:23:13.631Z,19.10
2019-02-11T19:25:45.777Z,19.93
2019-02-11T19:28:16.829Z,19.53
2019-02-11T19:30:47.727Z,23.13
2019-02-11T19:33:18.665Z,16.57
2019-02-11T19:35:49.853Z,19.47
2019-02-11T19:38:20.828Z,16.13
2019-02-11T19:40:51.817Z,14.10
2019-02-11T19:43:23.461Z,94.23
2019-02-11T19:45:54.643Z,24.23
2019-02-11T19:48:26.602Z,18.63
2019-02-11T19:50:57.550Z,14.33
2019-02-11T19:53:28.521Z,15.83
2019-02-11T19:55:59.415Z,15.87
2019-02-11T19:58:30.674Z,14.60
2019-02-11T20:01:01.598Z,15.63
2019-02-11T20:03:32.456Z,14.30
2019-02-11T20:06:03.595Z,13.67
2019-02-11T20:08:34.513Z,16.07
2019-02-11T20:11:05.506Z,15.43
2019-02-11T20:13:36.437Z,16.60
2019-02-11T20:16:07.330Z,17.17
2019-02-11T20:18:38.602Z,15.93
2019-02-11T20:21:15.019Z,15.40
2019-02-11T20:23:45.920Z,13.57
2019-02-11T20:26:21.646Z,13.83
2019-02-11T20:28:52.542Z,16.03
2019-02-11T20:31:23.430Z,18.63
2019-02-11T20:33:54.690Z,16.47
2019-02-11T20:36:25.698Z,29.50
2019-02-11T20:39:00.720Z,21.47
2019-02-11T20:41:34.659Z,15.37
2019-02-11T20:44:06.521Z,14.53
2019-02-11T20:46:37.443Z,15.03
2019-02-11T20:49:08.407Z,14.83
2019-02-11T20:51:39.617Z,18.10
2019-02-11T20:54:10.959Z,30.77
2019-02-11T20:56:41.941Z,15.13
2019-02-11T20:59:31.278Z,14.80
2019-02-11T21:02:20.950Z,16.13
2019-02-11T21:05:10.783Z,18.27
2019-02-11T21:07:59.768Z,20.77
2019-02-11T21:10:49.553Z,23.87
2019-02-11T21:13:39.018Z,25.73
2019-02-11T21:16:28.077Z,26.37
2019-02-11T21:19:20.067Z,45.70
2019-02-11T21:22:09.762Z,36.60
2019-02-11T21:24:58.975Z,39.33
2019-02-11T21:27:50.637Z,37.47
2019-02-11T21:30:40.125Z,30.33
2019-02-11T21:33:29.466Z,31.00
2019-02-11T21:36:19.184Z,39.47
2019-02-11T21:39:08.119Z,37.80
2019-02-11T21:41:56.691Z,40.77
2019-02-11T21:44:46.052Z,35.13
2019-02-11T21:47:38.712Z,34.20
2019-02-11T21:50:27.536Z,33.07
2019-02-11T21:53:17.405Z,33.40
2019-02-11T21:56:06.608Z,42.23
2019-02-11T21:58:56.254Z,49.97
2019-02-11T22:01:45.548Z,55.27
2019-02-11T22:04:35.173Z,39.63
2019-02-11T22:07:24.372Z,48.80
2019-02-11T22:10:15.285Z,64.93
2019-02-11T22:13:05.146Z,42.80
2019-02-11T22:15:57.759Z,38.57
2019-02-11T22:18:47.411Z,30.07
2019-02-11T22:21:37.306Z,30.27
2019-02-11T22:24:26.529Z,29.97
2019-02-11T22:27:15.927Z,26.97
2019-02-11T22:30:07.235Z,28.37
2019-02-11T22:32:57.118Z,29.37
2019-02-11T22:35:46.456Z,27.63
2019-02-11T22:38:35.933Z,18.67
2019-02-11T22:41:25.545Z,20.33
2019-02-11T22:44:15.433Z,13.00
2019-02-11T22:47:05.120Z,17.80
2019-02-11T22:49:54.599Z,12.43
2019-02-11T22:52:44.331Z,7.50
2019-02-11T22:55:33.664Z,6.67
2019-02-11T22:58:23.725Z,7.27
2019-02-11T23:01:13.864Z,7.10
2019-02-11T23:04:03.907Z,5.10
2019-02-11T23:06:54.483Z,7.07
2019-02-11T23:09:43.631Z,14.37
2019-02-11T23:12:33.187Z,19.70
2019-02-11T23:15:22.728Z,19.73
2019-02-11T23:18:12.688Z,14.87
2019-02-11T23:21:02.067Z,12.53
2019-02-11T23:23:51.617Z,15.07
2019-02-11T23:26:42.214Z,14.63
2019-02-11T23:29:31.485Z,11.87
2019-02-11T23:32:20.238Z,9.90
2019-02-11T23:35:09.635Z,10.13
2019-02-11T23:37:59.121Z,8.03
2019-02-11T23:40:48.519Z,7.83
2019-02-11T23:43:37.981Z,10.00
2019-02-11T23:46:27.678Z,12.33
2019-02-11T23:49:17.178Z,14.27
2019-02-11T23:52:06.596Z,12.17
2019-02-11T23:54:55.830Z,9.60
2019-02-11T23:57:45.256Z,12.43
